This is the latest recevied weather packets stored in our database for station/object KO5MO-10. If no packets are shown the sender has not sent any weather packets the latest 10 day(s).
| Time | Temp. | Humidity | Pressure | Rain* | Wind** | Luminosity | Snow |
|---|---|---|---|---|---|---|---|
| 1777475386 | 27.22° C | 18% | 1011.6 hPa | - | - | - | - |
| 1777474486 | 25° C | 22% | 1011.7 hPa | - | - | - | - |
| 1777473586 | 21.67° C | 28% | 1011.6 hPa | - | - | - | - |
| 1777472686 | 19.44° C | 29% | 1011.3 hPa | - | - | - | - |
| 1777471786 | 18.33° C | 28% | 1011.2 hPa | - | - | - | - |
| 1777470885 | 16.67° C | 33% | 1011.4 hPa | - | - | - | - |
| 1777469985 | 12.78° C | 36% | 1011.1 hPa | - | - | - | - |
| 1777469085 | 12.22° C | 37% | 1011.2 hPa | - | - | - | - |
| 1777468185 | 12.22° C | 35% | 1011 hPa | - | - | - | - |
| 1777467285 | 12.78° C | 35% | 1011.1 hPa | - | - | - | - |
| 1777466384 | 12.78° C | 36% | 1010.9 hPa | - | - | - | - |
| 1777465483 | 12.22° C | 39% | 1010.6 hPa | - | - | - | - |
| 1777464583 | 12.22° C | 40% | 1010.6 hPa | - | - | - | - |
| 1777463683 | 12.22° C | 39% | 1010.8 hPa | - | - | - | - |
| 1777462783 | 12.22° C | 39% | 1010.4 hPa | - | - | - | - |
| 1777461883 | 12.78° C | 36% | 1010.5 hPa | - | - | - | - |
| 1777460982 | 13.33° C | 38% | 1010.3 hPa | - | - | - | - |
| 1777460082 | 12.78° C | 40% | 1010.5 hPa | - | - | - | - |
| 1777459182 | 13.33° C | 35% | 1010.2 hPa | - | - | - | - |
| 1777458282 | 13.33° C | 35% | 1010.3 hPa | - | - | - | - |
| 1777457382 | 13.89° C | 35% | 1010.3 hPa | - | - | - | - |
| 1777456481 | 13.89° C | 33% | 1010.2 hPa | - | - | - | - |
| 1777455581 | 13.89° C | 32% | 1010.3 hPa | - | - | - | - |
| 1777454681 | 13.89° C | 32% | 1010.1 hPa | - | - | - | - |
| 1777453781 | 13.89° C | 33% | 1010.3 hPa | - | - | - | - |
* Rain since midnight (hover to see other rain measurements)
** Current wind speed in m/s (hover to see current wind gust speed)